createdAt,value
2023-01-25T00:01:08.621Z,46.60
2023-01-25T00:03:31.909Z,39.90
2023-01-25T00:06:02.255Z,44.03
2023-01-25T00:08:25.651Z,49.23
2023-01-25T00:10:52.556Z,47.40
2023-01-25T00:13:15.855Z,47.33
2023-01-25T00:15:39.081Z,41.90
2023-01-25T00:18:02.371Z,46.87
2023-01-25T00:20:25.722Z,49.00
2023-01-25T00:22:50.504Z,47.67
2023-01-25T00:25:13.723Z,46.07
2023-01-25T00:27:37.115Z,49.30
2023-01-25T00:30:00.380Z,52.93
2023-01-25T00:32:43.592Z,55.20
2023-01-25T00:35:12.182Z,47.53
2023-01-25T00:37:39.206Z,53.43
2023-01-25T00:40:03.924Z,48.13
2023-01-25T00:42:27.322Z,47.73
2023-01-25T00:44:50.860Z,44.60
2023-01-25T00:47:17.980Z,53.87
2023-01-25T00:49:43.239Z,59.50
2023-01-25T00:52:07.579Z,59.00
2023-01-25T00:54:30.873Z,53.90
2023-01-25T00:56:56.567Z,50.97
2023-01-25T00:59:20.029Z,49.33
2023-01-25T01:01:44.083Z,57.30
2023-01-25T01:04:07.376Z,50.70
2023-01-25T01:06:30.889Z,58.20
2023-01-25T01:08:54.444Z,53.60
2023-01-25T01:11:18.760Z,53.03
2023-01-25T01:13:43.585Z,64.17
2023-01-25T01:16:11.727Z,51.63
2023-01-25T01:18:36.073Z,46.43
2023-01-25T01:20:59.387Z,35.60
2023-01-25T01:23:22.844Z,39.87
2023-01-25T01:25:46.469Z,43.37
2023-01-25T01:28:09.955Z,45.13
2023-01-25T01:30:34.645Z,40.57
2023-01-25T01:32:57.907Z,40.03
2023-01-25T01:35:21.197Z,41.53
2023-01-25T01:37:44.573Z,41.57
2023-01-25T01:40:10.678Z,51.33
2023-01-25T01:42:34.008Z,54.30
2023-01-25T01:44:57.760Z,46.43
2023-01-25T01:47:27.689Z,44.87
2023-01-25T01:50:01.024Z,52.57
2023-01-25T01:52:31.433Z,51.23
2023-01-25T01:54:58.529Z,46.50
2023-01-25T01:57:26.947Z,47.50
2023-01-25T01:59:58.036Z,45.70
2023-01-25T02:02:22.893Z,48.67
2023-01-25T02:04:49.917Z,48.97
2023-01-25T02:07:19.643Z,47.93
2023-01-25T02:09:46.420Z,53.90
2023-01-25T02:12:12.619Z,41.63
2023-01-25T02:14:36.341Z,43.30
2023-01-25T02:17:00.139Z,43.03
2023-01-25T02:19:35.647Z,47.13
2023-01-25T02:22:00.259Z,46.87
2023-01-25T02:24:29.806Z,50.50
2023-01-25T02:26:54.645Z,46.03
2023-01-25T02:29:23.108Z,38.93
2023-01-25T02:31:49.611Z,44.17
2023-01-25T02:34:13.110Z,38.67
2023-01-25T02:36:37.248Z,37.13
2023-01-25T02:39:04.239Z,33.33
2023-01-25T02:41:34.015Z,35.77
2023-01-25T02:43:58.883Z,39.90
2023-01-25T02:46:27.480Z,39.57
2023-01-25T02:48:50.853Z,38.67
2023-01-25T02:51:14.419Z,41.43
2023-01-25T02:53:37.786Z,45.67
2023-01-25T02:56:01.055Z,43.10
2023-01-25T02:58:25.118Z,39.47
2023-01-25T03:00:49.857Z,40.83
2023-01-25T03:03:14.023Z,43.23
2023-01-25T03:05:37.771Z,45.47
2023-01-25T03:08:01.449Z,39.83
2023-01-25T03:10:24.863Z,42.30
2023-01-25T03:12:49.104Z,43.90
2023-01-25T03:15:12.494Z,41.37
2023-01-25T03:17:37.177Z,41.53
2023-01-25T03:20:00.635Z,44.97
2023-01-25T03:22:23.950Z,43.73
2023-01-25T03:24:48.449Z,43.47
2023-01-25T03:27:14.191Z,44.70
2023-01-25T03:29:41.708Z,44.10
2023-01-25T03:32:10.723Z,47.63
2023-01-25T03:34:35.444Z,46.07
2023-01-25T03:36:59.613Z,50.93
2023-01-25T03:39:23.028Z,42.40
2023-01-25T03:41:46.339Z,42.97
2023-01-25T03:44:11.664Z,45.40
2023-01-25T03:46:35.579Z,44.63
2023-01-25T03:49:01.480Z,45.40
2023-01-25T03:51:26.607Z,46.37
2023-01-25T03:53:49.998Z,48.40
2023-01-25T03:56:17.572Z,46.20
2023-01-25T03:58:48.364Z,37.80
2023-01-25T04:01:11.757Z,43.83
2023-01-25T04:03:35.293Z,39.10
2023-01-25T04:05:59.799Z,42.83
2023-01-25T04:08:27.031Z,42.03
2023-01-25T04:10:54.008Z,40.70
2023-01-25T04:13:17.387Z,42.60
2023-01-25T04:15:40.715Z,40.43
2023-01-25T04:18:12.428Z,43.37
2023-01-25T04:20:36.214Z,39.93
2023-01-25T04:22:59.850Z,40.47
2023-01-25T04:25:31.816Z,38.40
2023-01-25T04:27:55.468Z,39.07
2023-01-25T04:30:19.461Z,35.40
2023-01-25T04:32:44.621Z,37.87
2023-01-25T04:35:16.388Z,37.07
2023-01-25T04:37:40.178Z,36.93
2023-01-25T04:40:06.773Z,38.33
2023-01-25T04:42:37.759Z,36.73
2023-01-25T04:45:01.311Z,37.67
2023-01-25T04:47:25.087Z,37.23
2023-01-25T04:49:48.665Z,37.63
2023-01-25T04:52:15.229Z,44.83
2023-01-25T04:54:38.920Z,36.63
2023-01-25T04:57:02.420Z,40.77
2023-01-25T04:59:27.556Z,40.13
2023-01-25T05:01:51.466Z,38.30
2023-01-25T05:04:14.828Z,35.40
2023-01-25T05:06:41.664Z,39.17
2023-01-25T05:09:05.487Z,36.90
2023-01-25T05:11:30.846Z,40.07
2023-01-25T05:14:11.525Z,38.93
2023-01-25T05:16:36.477Z,37.83
2023-01-25T05:19:00.435Z,34.10
2023-01-25T05:21:54.627Z,32.60
2023-01-25T05:24:18.308Z,32.47
2023-01-25T05:26:59.232Z,29.23
2023-01-25T05:29:22.874Z,31.23
2023-01-25T05:31:57.347Z,32.40
2023-01-25T05:34:20.975Z,37.57
2023-01-25T05:36:44.227Z,39.13
2023-01-25T05:39:08.731Z,40.93
2023-01-25T05:41:32.746Z,40.87
2023-01-25T05:43:56.277Z,37.20
2023-01-25T05:46:20.349Z,35.33
2023-01-25T05:48:45.083Z,37.30
2023-01-25T05:51:08.732Z,36.80
2023-01-25T05:53:32.197Z,40.50
2023-01-25T05:55:56.057Z,36.97
2023-01-25T05:58:19.448Z,36.80
2023-01-25T06:00:42.905Z,38.97
2023-01-25T06:03:11.612Z,38.53
2023-01-25T06:05:38.199Z,37.70
2023-01-25T06:08:01.423Z,39.77
2023-01-25T06:10:39.321Z,37.97
2023-01-25T06:13:03.226Z,37.40
2023-01-25T06:15:28.018Z,39.37
2023-01-25T06:17:57.044Z,39.33
2023-01-25T06:20:40.931Z,37.23
2023-01-25T06:23:04.356Z,41.30
2023-01-25T06:25:27.627Z,42.23
2023-01-25T06:27:50.882Z,39.80
2023-01-25T06:30:14.777Z,41.87
2023-01-25T06:32:38.088Z,41.37
2023-01-25T06:35:01.353Z,39.57
2023-01-25T06:37:26.025Z,41.90
2023-01-25T06:39:49.405Z,38.83
2023-01-25T06:42:13.049Z,39.03
2023-01-25T06:44:36.288Z,39.63
2023-01-25T06:46:59.626Z,39.73
2023-01-25T06:49:22.859Z,42.43
2023-01-25T06:51:46.123Z,39.60
2023-01-25T06:54:10.707Z,41.50
2023-01-25T06:56:34.088Z,42.83
2023-01-25T06:58:57.464Z,46.67
2023-01-25T07:01:27.501Z,42.17
2023-01-25T07:03:52.277Z,43.70
2023-01-25T07:06:15.626Z,49.77
2023-01-25T07:08:39.779Z,49.63
2023-01-25T07:11:09.482Z,44.87
2023-01-25T07:13:34.582Z,43.83
2023-01-25T07:15:59.241Z,42.57
2023-01-25T07:18:22.744Z,48.17
2023-01-25T07:20:46.014Z,45.37
2023-01-25T07:23:09.696Z,49.10
2023-01-25T07:25:32.967Z,48.47
2023-01-25T07:27:57.801Z,51.13
2023-01-25T07:30:21.733Z,50.40
2023-01-25T07:32:45.060Z,51.70
2023-01-25T07:35:10.255Z,52.73
2023-01-25T07:37:34.410Z,52.33
2023-01-25T07:39:58.247Z,52.67
2023-01-25T07:42:21.458Z,53.43
2023-01-25T07:44:51.750Z,56.43
2023-01-25T07:47:15.410Z,54.77
2023-01-25T07:49:38.658Z,52.40
2023-01-25T07:52:01.920Z,52.87
2023-01-25T07:54:25.262Z,48.20
2023-01-25T07:56:49.559Z,48.77
2023-01-25T07:59:14.171Z,47.37
2023-01-25T08:01:40.263Z,50.23
2023-01-25T08:04:05.212Z,49.80
2023-01-25T08:06:35.662Z,47.77
2023-01-25T08:09:00.529Z,47.27
2023-01-25T08:11:26.210Z,46.93
2023-01-25T08:13:50.591Z,52.60
2023-01-25T08:16:14.331Z,52.27
2023-01-25T08:18:39.049Z,49.47
2023-01-25T08:21:03.311Z,53.67
2023-01-25T08:23:26.727Z,50.67
2023-01-25T08:25:50.006Z,46.33
2023-01-25T08:28:13.343Z,48.77
2023-01-25T08:30:36.695Z,53.00
2023-01-25T08:33:02.712Z,54.60
2023-01-25T08:35:27.306Z,55.17
2023-01-25T08:37:50.965Z,55.83
2023-01-25T08:40:14.885Z,58.50
2023-01-25T08:42:38.160Z,51.60
2023-01-25T08:45:02.681Z,48.70
2023-01-25T08:47:26.713Z,46.77
2023-01-25T08:49:51.062Z,47.33
2023-01-25T08:52:15.926Z,51.57
2023-01-25T08:54:39.154Z,48.10
2023-01-25T08:57:03.154Z,45.30
2023-01-25T08:59:26.485Z,47.23
2023-01-25T09:01:49.837Z,50.93
2023-01-25T09:04:13.155Z,50.07
2023-01-25T09:06:36.370Z,50.10
2023-01-25T09:09:01.276Z,50.70
2023-01-25T09:11:25.079Z,50.77
2023-01-25T09:13:52.028Z,51.10
2023-01-25T09:16:18.323Z,50.73
2023-01-25T09:18:43.968Z,56.83
2023-01-25T09:21:09.332Z,53.37
2023-01-25T09:23:33.304Z,56.90
2023-01-25T09:26:05.921Z,55.50
2023-01-25T09:28:30.979Z,53.37
2023-01-25T09:31:18.703Z,57.23
2023-01-25T09:34:15.826Z,55.03
2023-01-25T09:36:39.249Z,53.13
2023-01-25T09:39:02.458Z,52.27
2023-01-25T09:42:00.389Z,51.83
2023-01-25T09:44:44.623Z,53.00
2023-01-25T09:47:17.481Z,53.60
2023-01-25T09:49:58.199Z,51.87
2023-01-25T09:52:54.020Z,51.33
2023-01-25T09:55:22.642Z,49.63
2023-01-25T09:57:48.368Z,47.83
2023-01-25T10:00:19.614Z,53.53
2023-01-25T10:02:49.420Z,54.07
2023-01-25T10:05:16.999Z,52.47
2023-01-25T10:07:57.863Z,55.60
2023-01-25T10:10:26.111Z,57.63
2023-01-25T10:12:51.035Z,54.20
2023-01-25T10:15:23.260Z,56.73
2023-01-25T10:17:47.287Z,54.77
2023-01-25T10:20:24.135Z,56.60
2023-01-25T10:22:53.527Z,62.47
2023-01-25T10:25:40.270Z,61.17
2023-01-25T10:28:30.016Z,54.83
2023-01-25T10:30:59.783Z,56.70
2023-01-25T10:33:23.202Z,58.40
2023-01-25T10:35:48.514Z,58.80
2023-01-25T10:38:18.495Z,55.33
2023-01-25T10:40:46.932Z,54.30
2023-01-25T10:43:18.706Z,58.67
2023-01-25T10:45:43.140Z,57.93
2023-01-25T10:48:12.205Z,52.70
2023-01-25T10:50:51.432Z,59.73
2023-01-25T10:53:26.917Z,56.57
2023-01-25T10:56:01.242Z,56.33
2023-01-25T10:58:36.130Z,59.73
2023-01-25T11:00:59.451Z,61.23
2023-01-25T11:03:23.446Z,68.50
2023-01-25T11:05:55.964Z,59.33
2023-01-25T11:08:25.912Z,57.33
2023-01-25T11:10:49.835Z,61.23
2023-01-25T11:13:26.118Z,59.57
2023-01-25T11:15:53.418Z,64.63
2023-01-25T11:18:22.484Z,59.60
2023-01-25T11:20:46.095Z,53.83
2023-01-25T11:23:24.661Z,61.17
2023-01-25T11:25:48.218Z,59.33
2023-01-25T11:28:17.839Z,60.87
2023-01-25T11:30:41.247Z,64.10
2023-01-25T11:33:12.860Z,61.80
2023-01-25T11:35:38.606Z,59.20
2023-01-25T11:38:12.643Z,59.70
2023-01-25T11:40:44.360Z,65.73
2023-01-25T11:43:25.975Z,64.80
2023-01-25T11:46:14.074Z,70.70
2023-01-25T11:49:04.771Z,64.80
2023-01-25T11:51:35.071Z,61.40
2023-01-25T11:54:25.572Z,64.23
2023-01-25T11:56:59.638Z,70.30
2023-01-25T11:59:42.705Z,70.03
2023-01-25T12:02:46.757Z,62.80
2023-01-25T12:05:43.938Z,58.30
2023-01-25T12:08:21.594Z,67.77
2023-01-25T12:10:54.261Z,67.43
2023-01-25T12:13:26.143Z,65.07
2023-01-25T12:16:07.157Z,72.80
2023-01-25T12:18:49.820Z,67.10
2023-01-25T12:21:33.084Z,65.67
2023-01-25T12:24:18.941Z,70.07
2023-01-25T12:26:52.968Z,64.30
2023-01-25T12:29:27.119Z,72.90
2023-01-25T12:31:57.582Z,70.30
2023-01-25T12:34:28.112Z,66.80
2023-01-25T12:36:52.936Z,67.13
2023-01-25T12:39:24.299Z,66.80
2023-01-25T12:41:54.613Z,69.37
2023-01-25T12:44:24.845Z,61.43
2023-01-25T12:46:56.229Z,63.67
2023-01-25T12:49:33.871Z,72.40
2023-01-25T12:52:05.262Z,67.93
2023-01-25T12:54:34.909Z,71.80
2023-01-25T12:57:12.778Z,74.70
2023-01-25T12:59:47.191Z,68.63
2023-01-25T13:02:32.306Z,80.90
2023-01-25T13:05:04.685Z,77.67
2023-01-25T13:07:38.643Z,79.60
2023-01-25T13:10:14.886Z,77.47
2023-01-25T13:12:53.345Z,74.30
2023-01-25T13:15:39.081Z,77.17
2023-01-25T13:18:02.288Z,80.63
2023-01-25T13:20:50.934Z,85.73
2023-01-25T13:23:33.148Z,79.20
2023-01-25T13:26:49.600Z,73.23
2023-01-25T13:30:03.682Z,67.67
2023-01-25T13:33:05.610Z,72.63
2023-01-25T13:35:44.436Z,76.17
2023-01-25T13:38:29.553Z,81.07
2023-01-25T13:41:14.411Z,77.80
2023-01-25T13:43:37.988Z,74.87
2023-01-25T13:46:01.726Z,80.37
2023-01-25T13:48:27.693Z,80.77
2023-01-25T13:50:54.196Z,78.53
2023-01-25T13:53:23.042Z,82.83
2023-01-25T13:55:50.354Z,82.90
2023-01-25T13:58:21.293Z,77.00
2023-01-25T14:00:54.799Z,77.00
2023-01-25T14:03:18.803Z,72.07
2023-01-25T14:05:50.222Z,65.67
2023-01-25T14:08:14.623Z,64.93
2023-01-25T14:10:37.893Z,69.13
2023-01-25T14:13:03.370Z,67.93
2023-01-25T14:15:29.860Z,68.57
2023-01-25T14:18:11.993Z,83.70
2023-01-25T14:20:35.400Z,74.43
2023-01-25T14:22:58.654Z,65.53
2023-01-25T14:25:25.500Z,70.83
2023-01-25T14:27:52.503Z,68.93
2023-01-25T14:30:23.944Z,75.93
2023-01-25T14:32:47.464Z,75.47
2023-01-25T14:35:53.794Z,73.53
2023-01-25T14:38:28.434Z,69.17
2023-01-25T14:40:54.364Z,68.77
2023-01-25T14:43:18.941Z,70.63
2023-01-25T14:45:43.915Z,69.33
2023-01-25T14:48:27.390Z,76.50
2023-01-25T14:50:50.757Z,66.73
2023-01-25T14:53:21.122Z,70.47
2023-01-25T14:55:46.471Z,78.27
2023-01-25T14:58:17.235Z,76.00
2023-01-25T15:00:41.145Z,72.50
2023-01-25T15:03:07.843Z,73.80
2023-01-25T15:05:34.432Z,76.93
2023-01-25T15:07:59.471Z,85.23
2023-01-25T15:10:25.346Z,75.13
2023-01-25T15:13:13.629Z,77.53
2023-01-25T15:15:37.994Z,83.07
2023-01-25T15:18:01.967Z,83.47
2023-01-25T15:20:35.427Z,76.20
2023-01-25T15:23:02.455Z,75.93
2023-01-25T15:25:25.763Z,76.50
2023-01-25T15:27:49.450Z,83.27
2023-01-25T15:30:14.882Z,71.47
2023-01-25T15:32:38.177Z,77.83
2023-01-25T15:35:01.450Z,74.30
2023-01-25T15:37:26.247Z,76.60
2023-01-25T15:39:50.539Z,75.17
2023-01-25T15:42:14.929Z,81.33
2023-01-25T15:44:38.353Z,76.00
2023-01-25T15:47:02.853Z,73.37
2023-01-25T15:49:28.451Z,77.67
2023-01-25T15:51:51.760Z,86.03
2023-01-25T15:54:16.416Z,76.43
2023-01-25T15:56:43.173Z,72.67
2023-01-25T15:59:09.947Z,64.00
2023-01-25T16:01:33.476Z,68.77
2023-01-25T16:03:57.721Z,76.47
2023-01-25T16:06:37.652Z,72.37
2023-01-25T16:09:01.851Z,71.93
2023-01-25T16:11:26.707Z,75.00
2023-01-25T16:13:50.074Z,75.47
2023-01-25T16:16:20.043Z,80.43
2023-01-25T16:18:43.955Z,75.47
2023-01-25T16:21:07.307Z,78.83
2023-01-25T16:23:30.597Z,77.50
2023-01-25T16:25:53.757Z,88.27
2023-01-25T16:28:19.141Z,82.80
2023-01-25T16:30:44.328Z,79.83
2023-01-25T16:33:07.979Z,86.47
2023-01-25T16:35:31.219Z,83.97
2023-01-25T16:37:54.488Z,71.03
2023-01-25T16:40:24.717Z,76.67
2023-01-25T16:42:48.046Z,74.50
2023-01-25T16:45:12.959Z,82.97
2023-01-25T16:47:36.303Z,73.83
2023-01-25T16:49:59.587Z,77.93
2023-01-25T16:52:22.821Z,86.17
2023-01-25T16:54:46.051Z,80.27
2023-01-25T16:57:20.321Z,75.93
2023-01-25T16:59:44.128Z,84.13
2023-01-25T17:02:12.489Z,81.10
2023-01-25T17:04:35.777Z,87.83
2023-01-25T17:06:59.882Z,90.27
2023-01-25T17:09:25.507Z,86.67
2023-01-25T17:11:48.943Z,85.27
2023-01-25T17:14:16.804Z,80.17
2023-01-25T17:16:39.966Z,85.50
2023-01-25T17:19:08.328Z,78.27
2023-01-25T17:21:32.388Z,84.53
2023-01-25T17:23:58.504Z,82.27
2023-01-25T17:26:24.115Z,89.10
2023-01-25T17:28:48.140Z,99.30
2023-01-25T17:31:17.428Z,98.23
2023-01-25T17:33:40.852Z,91.97
2023-01-25T17:36:06.193Z,94.37
2023-01-25T17:38:30.172Z,100.37
2023-01-25T17:40:53.441Z,96.93
2023-01-25T17:43:16.838Z,108.07
2023-01-25T17:45:40.604Z,102.93
2023-01-25T17:48:03.874Z,112.87
2023-01-25T17:50:27.153Z,108.80
2023-01-25T17:52:51.988Z,117.60
2023-01-25T17:55:15.433Z,109.37
2023-01-25T17:57:39.390Z,110.83
2023-01-25T18:00:02.699Z,117.60
2023-01-25T18:02:36.013Z,123.13
2023-01-25T18:04:59.715Z,126.63
2023-01-25T18:07:22.993Z,122.30
2023-01-25T18:09:47.709Z,116.60
2023-01-25T18:12:11.048Z,116.33
2023-01-25T18:14:35.062Z,111.90
2023-01-25T18:16:58.571Z,116.00
2023-01-25T18:19:22.103Z,122.63
2023-01-25T18:21:45.401Z,106.33
2023-01-25T18:24:26.348Z,109.00
2023-01-25T18:26:52.702Z,121.13
2023-01-25T18:29:40.612Z,126.57
2023-01-25T18:32:04.184Z,123.90
2023-01-25T18:34:27.519Z,115.03
2023-01-25T18:36:50.900Z,127.50
2023-01-25T18:39:14.127Z,133.53
2023-01-25T18:41:37.492Z,135.80
2023-01-25T18:44:02.663Z,136.33
2023-01-25T18:46:26.244Z,141.77
2023-01-25T18:48:51.071Z,137.70
2023-01-25T18:51:17.844Z,131.20
2023-01-25T18:53:43.493Z,148.63
2023-01-25T18:56:09.443Z,140.47
2023-01-25T18:58:36.367Z,137.90
2023-01-25T19:01:06.820Z,139.50
2023-01-25T19:03:30.643Z,153.90
2023-01-25T19:05:54.051Z,155.53
2023-01-25T19:08:17.317Z,141.53
2023-01-25T19:10:40.595Z,134.43
2023-01-25T19:13:03.910Z,141.40
2023-01-25T19:15:27.894Z,138.57
2023-01-25T19:17:52.633Z,147.63
2023-01-25T19:20:16.419Z,145.27
2023-01-25T19:22:40.577Z,130.07
2023-01-25T19:25:04.186Z,140.63
2023-01-25T19:27:29.427Z,130.93
2023-01-25T19:29:52.941Z,143.10
2023-01-25T19:32:16.431Z,150.77
2023-01-25T19:34:41.135Z,145.07
2023-01-25T19:37:04.514Z,141.33
2023-01-25T19:39:28.516Z,126.83
2023-01-25T19:41:54.346Z,119.07
2023-01-25T19:44:17.761Z,132.00
2023-01-25T19:46:41.616Z,142.93
2023-01-25T19:49:08.093Z,149.07
2023-01-25T19:51:35.220Z,143.30
2023-01-25T19:54:00.708Z,140.50
2023-01-25T19:56:23.960Z,140.27
2023-01-25T19:58:49.353Z,142.80
2023-01-25T20:01:15.909Z,142.77
2023-01-25T20:03:39.916Z,144.23
2023-01-25T20:06:04.044Z,136.70
2023-01-25T20:08:31.215Z,128.23
2023-01-25T20:10:59.910Z,125.03
2023-01-25T20:13:23.189Z,117.50
2023-01-25T20:15:48.214Z,122.27
2023-01-25T20:18:11.633Z,126.37
2023-01-25T20:20:34.991Z,126.00
2023-01-25T20:22:58.244Z,123.33
2023-01-25T20:25:23.285Z,114.30
2023-01-25T20:27:46.579Z,131.50
2023-01-25T20:30:11.900Z,134.47
2023-01-25T20:32:37.602Z,137.60
2023-01-25T20:35:03.561Z,134.47
2023-01-25T20:37:26.937Z,136.67
2023-01-25T20:39:50.297Z,124.30
2023-01-25T20:42:14.968Z,126.10
2023-01-25T20:44:38.275Z,116.63
2023-01-25T20:47:01.550Z,134.13
2023-01-25T20:49:24.888Z,126.30
2023-01-25T20:51:48.931Z,134.63
2023-01-25T20:54:12.845Z,133.37
2023-01-25T20:56:36.154Z,116.90
2023-01-25T20:59:01.056Z,120.77
2023-01-25T21:01:29.548Z,116.40
2023-01-25T21:03:54.376Z,136.63
2023-01-25T21:06:18.703Z,136.17
2023-01-25T21:08:42.175Z,141.87
2023-01-25T21:11:06.392Z,149.27
2023-01-25T21:13:30.404Z,130.87
2023-01-25T21:16:01.781Z,116.17
2023-01-25T21:18:25.475Z,133.67
2023-01-25T21:20:48.753Z,120.80
2023-01-25T21:23:12.036Z,125.97
2023-01-25T21:25:35.316Z,121.47
2023-01-25T21:27:58.715Z,128.77
2023-01-25T21:30:23.307Z,128.90
2023-01-25T21:32:48.019Z,129.30
2023-01-25T21:35:11.750Z,113.17
2023-01-25T21:37:35.183Z,128.33
2023-01-25T21:39:58.381Z,118.23
2023-01-25T21:42:21.680Z,124.53
2023-01-25T21:45:02.555Z,129.07
2023-01-25T21:47:30.939Z,133.07
2023-01-25T21:50:13.844Z,121.50
2023-01-25T21:52:37.371Z,125.90
2023-01-25T21:55:00.747Z,122.57
2023-01-25T21:57:24.131Z,121.07
2023-01-25T21:59:48.781Z,117.07
2023-01-25T22:02:15.212Z,131.57
2023-01-25T22:04:39.204Z,127.67
2023-01-25T22:07:04.658Z,122.73
2023-01-25T22:09:27.885Z,122.57
2023-01-25T22:11:51.732Z,128.40
2023-01-25T22:14:15.224Z,122.27
2023-01-25T22:16:38.619Z,118.13
2023-01-25T22:19:01.935Z,126.47
2023-01-25T22:21:28.699Z,120.07
2023-01-25T22:23:53.615Z,121.43
2023-01-25T22:26:18.772Z,135.53
2023-01-25T22:28:47.960Z,136.97
2023-01-25T22:31:11.413Z,140.07
2023-01-25T22:33:34.670Z,135.27
2023-01-25T22:35:58.557Z,133.57
2023-01-25T22:38:21.823Z,134.07
2023-01-25T22:40:46.808Z,127.20
2023-01-25T22:43:10.039Z,122.73
2023-01-25T22:45:33.295Z,133.37
2023-01-25T22:47:56.565Z,135.37
2023-01-25T22:50:19.908Z,137.43
2023-01-25T22:52:43.152Z,135.17
2023-01-25T22:55:07.429Z,125.20
2023-01-25T22:57:32.051Z,121.57
2023-01-25T22:59:55.416Z,118.87
2023-01-25T23:02:18.707Z,113.17
2023-01-25T23:04:41.986Z,121.10
2023-01-25T23:07:11.979Z,118.17
2023-01-25T23:09:35.293Z,137.97
2023-01-25T23:11:58.633Z,146.87
2023-01-25T23:14:40.992Z,135.13
2023-01-25T23:17:18.198Z,138.03
2023-01-25T23:19:41.481Z,146.03
2023-01-25T23:22:05.286Z,132.30
2023-01-25T23:24:28.633Z,132.43
2023-01-25T23:26:51.917Z,135.73
2023-01-25T23:29:15.512Z,131.30
2023-01-25T23:31:40.254Z,124.87
2023-01-25T23:34:07.012Z,119.50
2023-01-25T23:36:32.522Z,127.67
2023-01-25T23:38:57.624Z,124.60
2023-01-25T23:41:23.982Z,135.97
2023-01-25T23:43:48.285Z,137.43
2023-01-25T23:46:14.185Z,129.23
2023-01-25T23:48:38.812Z,122.63
2023-01-25T23:51:02.612Z,119.47
2023-01-25T23:53:27.838Z,132.63
2023-01-25T23:55:54.782Z,128.60
2023-01-25T23:58:18.065Z,133.97
